Portada
Imágenes satélite Pronóstico 15 díasClimaPredicción Marítima Ciclones Rayo AeropuertosFAQ Noticias Acerca
El tiempo : Europa África América del Norte América del Sur Asia Australia-Oceanía Otros
Idiomas Contacto

Chichén Itzá, México

latitud: 20-38-30N, longitud: 088-26-58W, altitud: 31 m


METAR: MMCT 202140Z 36005KT 8SM BKN015 28/23 A2993 RMK 8/400 MSGTX MMMD
TAF: falta

Hora: 04:39 (10:39 UTC)

Observación

El informe se hizo hace 12 horas y 59 minutos, a las 21:40 UTC
Viento 5 kt del norte
Temperatura 28°C
Humedad 74%
Presión 1014 hPa
Visibilidad: 12.9 km
Cielo nuboso a una altura de 1500 ft

Cambiar las unidades
La información que se ofrece en estas páginas está sujeta a una cláusula de exención de responsabilidad
El tiempo : Europa África América del Norte América del Sur Asia Australia-Oceanía Otros
Imágenes satélite Pronóstico 15 díasClimaPredicción Marítima Ciclones Rayo AeropuertosFAQ Idiomas Contacto Noticias Acerca